Time;durP1;ratioP1;P1;durP2;ratioP2;P2;SDS_P1;SDS_P2;PMS_P1;PMS_P2;Temp;Humidity;BMP_temperature;BMP_pressure;BME280_temperature;BME280_humidity;BME280_pressure;Samples;Min_cycle;Max_cycle;Signal;HPM_P1;HPM_P2
2022/03/22 00:02:25;;;;;;;43.58;19.48;;;;;;;-0.06;49.90;102401.84;4422530;32;20468;-68
2022/03/22 00:04:53;;;;;;;46.17;19.73;;;;;;;-0.15;50.23;102410.72;4422353;32;20445;-68
2022/03/22 00:07:20;;;;;;;47.70;21.30;;;;;;;-0.19;49.89;102399.25;4422419;32;20093;-68
2022/03/22 00:09:47;;;;;;;48.90;20.75;;;;;;;-0.25;49.96;102404.97;4422311;32;20176;-68
2022/03/22 00:12:15;;;;;;;51.63;22.20;;;;;;;-0.33;50.62;102406.16;4422226;32;20444;-69
2022/03/22 00:14:44;;;;;;;45.63;21.85;;;;;;;-0.29;50.98;102404.66;4422498;32;20093;-68
2022/03/22 00:17:32;;;;;;;46.28;20.70;;;;;;;-0.32;51.05;102407.03;4422276;32;20196;-68
2022/03/22 00:19:59;;;;;;;42.28;20.88;;;;;;;-0.20;50.96;102405.25;4422249;32;20093;-68
2022/03/22 00:22:27;;;;;;;55.47;20.92;;;;;;;-0.22;51.02;102409.44;4422322;32;20089;-68
2022/03/22 00:24:55;;;;;;;50.95;21.25;;;;;;;-0.34;51.58;102413.84;4422144;32;20089;-68
2022/03/22 00:27:22;;;;;;;50.10;20.05;;;;;;;-0.46;52.83;102408.72;4422173;32;20409;-68
2022/03/22 00:29:49;;;;;;;47.92;20.50;;;;;;;-0.47;52.89;102413.81;4422031;32;20515;-68
2022/03/22 00:32:17;;;;;;;38.17;17.33;;;;;;;-0.46;52.60;102407.84;4422201;32;20140;-68
2022/03/22 00:34:44;;;;;;;42.50;18.35;;;;;;;-0.46;52.15;102410.44;4422021;32;20105;-68
2022/03/22 00:37:17;;;;;;;54.33;22.62;;;;;;;-0.35;52.28;102409.47;4422164;32;20130;-68
2022/03/22 00:39:45;;;;;;;40.12;18.75;;;;;;;-0.27;52.63;102406.56;4421955;32;20137;-68
2022/03/22 00:42:14;;;;;;;41.03;18.42;;;;;;;-0.26;52.41;102397.09;4421990;32;20147;-68
2022/03/22 00:44:41;;;;;;;41.70;19.40;;;;;;;-0.14;51.34;102405.66;4422045;32;20167;-68
2022/03/22 00:47:09;;;;;;;44.10;19.25;;;;;;;-0.15;51.45;102410.72;4424134;32;20092;-68
2022/03/22 00:49:36;;;;;;;45.45;18.77;;;;;;;-0.09;50.49;102404.25;4424188;32;20089;-68
2022/03/22 00:52:04;;;;;;;45.08;19.67;;;;;;;-0.17;51.51;102401.97;4409802;32;20114;-68
2022/03/22 00:54:35;;;;;;;38.53;18.27;;;;;;;-0.27;51.99;102401.38;4424223;32;20086;-68
2022/03/22 00:57:02;;;;;;;37.75;17.65;;;;;;;-0.12;50.18;102397.97;4410024;32;20113;-68
2022/03/22 01:02:15;;;;;;;36.65;17.83;;;;;;;-0.06;49.80;102404.44;4424475;32;20147;-68
2022/03/22 01:04:43;;;;;;;36.05;19.02;;;;;;;-0.12;50.61;102403.16;4424165;32;20169;-68
2022/03/22 01:07:10;;;;;;;42.50;20.52;;;;;;;-0.11;49.64;102400.63;4424185;32;20525;-68
2022/03/22 01:09:37;;;;;;;42.72;19.45;;;;;;;-0.17;51.00;102397.69;4423972;32;20073;-68
2022/03/22 01:12:05;;;;;;;44.13;19.75;;;;;;;-0.32;52.32;102397.59;4424107;32;20093;-68
2022/03/22 01:14:33;;;;;;;38.88;19.42;;;;;;;-0.37;51.23;102398.09;4409432;32;20457;-68
2022/03/22 01:17:01;;;;;;;39.00;17.75;;;;;;;-0.49;52.41;102393.91;4423999;32;20129;-68
2022/03/22 01:19:29;;;;;;;36.35;17.67;;;;;;;-0.58;51.08;102393.31;4423945;32;20081;-68
2022/03/22 01:21:56;;;;;;;33.70;17.60;;;;;;;-0.69;51.64;102394.31;4423893;32;20573;-68
2022/03/22 01:24:24;;;;;;;39.85;16.45;;;;;;;-0.77;51.66;102391.22;4423855;32;20101;-68
2022/03/22 01:26:51;;;;;;;33.53;16.50;;;;;;;-0.82;52.46;102394.28;4423740;32;20545;-68
2022/03/22 01:29:18;;;;;;;36.58;17.08;;;;;;;-0.92;52.73;102389.28;4423790;32;20085;-68
2022/03/22 01:31:45;;;;;;;44.47;19.70;;;;;;;-1.02;54.20;102393.84;4424045;32;20147;-68
2022/03/22 01:34:12;;;;;;;40.75;18.45;;;;;;;-1.10;56.03;102396.72;4423932;32;20085;-68
2022/03/22 01:36:40;;;;;;;41.83;16.65;;;;;;;-1.09;57.70;102398.53;4423748;32;20208;-68
2022/03/22 01:39:07;;;;;;;38.33;16.65;;;;;;;-1.09;56.51;102396.81;4423778;32;20426;-68
2022/03/22 01:41:35;;;;;;;36.72;16.92;;;;;;;-1.01;56.25;102392.16;4423855;32;20095;-68
2022/03/22 01:44:02;;;;;;;41.17;16.70;;;;;;;-0.88;54.99;102396.44;4423687;32;20521;-68
2022/03/22 01:46:34;;;;;;;37.90;17.45;;;;;;;-0.74;54.48;102400.88;4423760;32;20097;-68
2022/03/22 01:49:02;;;;;;;33.38;16.10;;;;;;;-0.93;54.98;102396.16;4423738;32;20123;-68
2022/03/22 01:51:33;;;;;;;37.65;17.27;;;;;;;-0.89;53.55;102392.97;4423662;32;20159;-68
2022/03/22 01:54:01;;;;;;;35.97;15.65;;;;;;;-1.07;56.07;102390.03;4423654;32;20085;-68
2022/03/22 01:56:28;;;;;;;39.47;16.08;;;;;;;-1.06;54.85;102389.28;4422980;32;20127;-68
2022/03/22 01:58:55;;;;;;;30.58;13.88;;;;;;;-1.03;54.79;102384.28;4423672;32;20168;-68
2022/03/22 02:06:57;;;;;;;24.35;13.23;;;;;;;-1.23;56.14;102377.78;4423625;32;20160;-68
2022/03/22 02:09:25;;;;;;;25.05;12.13;;;;;;;-1.41;56.68;102379.13;4423634;32;20149;-68
2022/03/22 02:11:52;;;;;;;28.33;13.60;;;;;;;-1.47;55.70;102383.88;4423604;32;20082;-68
2022/03/22 02:14:20;;;;;;;26.05;12.05;;;;;;;-1.48;57.41;102375.22;4423557;32;20852;-68
2022/03/22 02:16:48;;;;;;;21.87;11.40;;;;;;;-1.54;57.51;102371.31;4423552;32;20507;-68
2022/03/22 02:19:15;;;;;;;15.63;9.20;;;;;;;-1.60;57.32;102370.88;4423603;32;20077;-68
2022/03/22 02:21:43;;;;;;;18.37;8.65;;;;;;;-1.35;54.35;102376.94;4423517;32;20184;-68
2022/03/22 02:24:10;;;;;;;18.67;8.52;;;;;;;-1.12;53.17;102365.56;4423629;32;20129;-68
2022/03/22 02:26:38;;;;;;;16.95;8.77;;;;;;;-1.26;54.69;102364.66;4423380;32;20101;-68
2022/03/22 02:29:06;;;;;;;14.32;8.18;;;;;;;-1.12;52.80;102363.00;4423414;32;20176;-68
2022/03/22 02:31:33;;;;;;;14.30;7.55;;;;;;;-0.98;51.85;102364.81;4423488;32;20169;-68
2022/03/22 02:34:00;;;;;;;17.02;8.50;;;;;;;-0.99;52.74;102363.03;4423478;32;20097;-68
2022/03/22 02:36:28;;;;;;;14.52;7.53;;;;;;;-1.14;53.76;102361.97;4423481;32;20223;-68
2022/03/22 02:38:55;;;;;;;18.05;7.75;;;;;;;-1.29;53.72;102363.53;4409135;32;20129;-68
2022/03/22 02:41:24;;;;;;;16.92;8.18;;;;;;;-1.42;54.59;102369.56;4423419;32;20438;-68
2022/03/22 02:43:53;;;;;;;15.32;7.40;;;;;;;-1.53;54.97;102368.81;4423311;32;20137;-68
2022/03/22 02:46:21;;;;;;;14.48;8.35;;;;;;;-1.58;55.51;102375.37;4423536;32;20105;-68
2022/03/22 02:48:48;;;;;;;15.70;8.13;;;;;;;-1.56;55.99;102376.34;4423238;32;20165;-68
2022/03/22 02:51:16;;;;;;;13.65;7.60;;;;;;;-1.50;55.77;102369.03;4423346;32;20801;-68
2022/03/22 02:53:43;;;;;;;20.20;7.72;;;;;;;-1.47;56.45;102377.00;4423310;32;20101;-68
2022/03/22 02:56:10;;;;;;;11.45;7.32;;;;;;;-1.64;56.49;102366.28;4423312;32;20101;-68
2022/03/22 02:58:39;;;;;;;17.20;8.85;;;;;;;-1.77;56.54;102369.69;4423398;32;20445;-68
2022/03/22 03:01:06;;;;;;;14.07;7.72;;;;;;;-1.73;57.03;102372.63;4423233;32;20155;-68
2022/03/22 03:03:34;;;;;;;21.48;7.72;;;;;;;-1.71;57.18;102377.91;4423261;32;20124;-68
2022/03/22 03:06:01;;;;;;;16.10;8.23;;;;;;;-1.72;57.01;102376.09;4423375;32;20522;-68
2022/03/22 03:08:28;;;;;;;13.43;7.85;;;;;;;-1.66;56.43;102383.38;4422965;32;20116;-68
2022/03/22 03:10:56;;;;;;;16.62;8.43;;;;;;;-1.71;56.66;102385.66;4423340;32;20124;-68
2022/03/22 03:13:24;;;;;;;18.10;10.02;;;;;;;-1.65;56.92;102386.09;4423100;32;20097;-68
2022/03/22 03:15:51;;;;;;;20.58;9.15;;;;;;;-1.77;56.87;102386.09;4423221;32;20101;-68
2022/03/22 03:18:19;;;;;;;14.85;8.80;;;;;;;-1.81;57.68;102389.25;4423109;32;20101;-68
2022/03/22 03:20:46;;;;;;;14.73;8.20;;;;;;;-1.72;57.62;102383.88;4423050;32;20525;-68
2022/03/22 03:23:13;;;;;;;14.55;8.35;;;;;;;-1.59;55.40;102391.69;4423026;32;20504;-68
2022/03/22 03:25:40;;;;;;;17.85;8.93;;;;;;;-1.62;57.40;102390.56;4408631;32;20575;-68
2022/03/22 03:28:09;;;;;;;15.52;8.00;;;;;;;-1.72;57.68;102396.78;4422977;32;20111;-68
2022/03/22 03:30:36;;;;;;;20.20;9.55;;;;;;;-1.81;58.05;102396.13;4422831;32;20107;-68
2022/03/22 03:33:04;;;;;;;18.48;8.48;;;;;;;-1.77;58.17;102403.28;4423045;32;20413;-68
2022/03/22 03:35:31;;;;;;;15.20;8.77;;;;;;;-1.62;58.08;102398.34;4422848;32;20521;-68
2022/03/22 03:37:58;;;;;;;22.90;9.63;;;;;;;-1.62;58.32;102383.72;4422845;32;20098;-68
2022/03/22 03:41:53;;;;;;;26.80;10.23;;;;;;;-1.75;59.08;102392.28;4422780;32;20093;-68
2022/03/22 03:43:13;;;;;;;28.23;10.73;;;;;;;-1.73;58.05;102389.84;4422795;32;20089;-68
2022/03/22 03:48:26;;;;;;;28.33;9.90;;;;;;;-1.69;57.02;102379.81;4422780;32;20119;-68
2022/03/22 03:50:53;;;;;;;25.95;9.95;;;;;;;-1.68;56.65;102380.69;4422824;32;20119;-68
2022/03/22 03:53:20;;;;;;;34.30;11.88;;;;;;;-1.56;57.66;102380.62;4422661;32;20101;-68
2022/03/22 03:55:48;;;;;;;37.17;13.32;;;;;;;-1.61;57.25;102377.75;4422608;32;20102;-68
2022/03/22 03:58:15;;;;;;;31.83;12.20;;;;;;;-1.73;57.70;102393.31;4422730;32;20123;-68
2022/03/22 04:00:42;;;;;;;28.30;11.07;;;;;;;-1.73;56.23;102387.25;4422580;32;20113;-68
2022/03/22 04:03:10;;;;;;;27.35;10.88;;;;;;;-1.76;56.05;102393.09;4422640;32;20090;-68
2022/03/22 04:05:37;;;;;;;23.40;9.70;;;;;;;-1.76;56.54;102387.91;4422774;32;20462;-68
2022/03/22 04:08:08;;;;;;;22.48;10.18;;;;;;;-1.73;56.32;102384.66;4422508;32;20136;-68
2022/03/22 04:10:36;;;;;;;26.55;10.05;;;;;;;-1.66;56.64;102388.53;4422340;32;20153;-68
2022/03/22 04:13:04;;;;;;;17.90;8.90;;;;;;;-1.61;55.94;102388.09;4422303;32;20769;-68
2022/03/22 04:15:31;;;;;;;18.55;9.38;;;;;;;-1.52;55.19;102399.06;4422334;32;20468;-68
2022/03/22 04:17:59;;;;;;;18.70;8.15;;;;;;;-1.49;55.91;102399.25;4422345;32;20082;-68
2022/03/22 04:20:26;;;;;;;18.42;8.27;;;;;;;-1.61;55.97;102393.25;4419642;32;107429;-68
2022/03/22 04:22:55;;;;;;;17.42;8.82;;;;;;;-1.74;57.70;102401.81;4424393;32;20110;-68
2022/03/22 04:25:22;;;;;;;17.60;8.35;;;;;;;-1.89;58.58;102405.03;4424256;32;20490;-68
2022/03/22 04:33:22;;;;;;;18.50;8.90;;;;;;;-1.98;58.49;102413.00;4424347;32;20085;-68
2022/03/22 04:35:50;;;;;;;16.05;8.43;;;;;;;-2.02;58.94;102408.41;4397212;32;20097;-68
2022/03/22 04:38:17;;;;;;;21.25;9.02;;;;;;;-2.08;58.80;102413.16;4424190;32;20085;-68
2022/03/22 04:40:45;;;;;;;19.10;8.82;;;;;;;-2.21;59.42;102413.97;4424199;32;20863;-68
2022/03/22 04:43:16;;;;;;;17.15;9.02;;;;;;;-2.23;59.05;102423.28;4423909;32;20573;-68
2022/03/22 04:45:44;;;;;;;20.10;8.82;;;;;;;-2.25;60.01;102422.28;4424274;32;20117;-69
2022/03/22 04:48:11;;;;;;;28.35;8.45;;;;;;;-2.24;59.80;102418.91;4431175;32;20158;-69
2022/03/22 04:50:39;;;;;;;24.45;9.07;;;;;;;-2.11;58.72;102424.16;4431339;32;20154;-69
2022/03/22 04:58:37;;;;;;;19.37;9.93;;;;;;;-2.14;59.92;102426.53;4440430;32;20093;-68
2022/03/22 05:01:04;;;;;;;25.25;9.40;;;;;;;-2.13;60.96;102423.16;4439807;32;20136;-69
2022/03/22 05:03:32;;;;;;;26.48;9.80;;;;;;;-2.09;60.92;102427.75;4435614;32;20458;-69
2022/03/22 05:08:47;;;;;;;25.17;10.10;;;;;;;-1.92;60.73;102426.37;4429535;32;20089;-69
2022/03/22 05:11:14;;;;;;;26.23;9.30;;;;;;;-1.79;60.10;102430.75;4424069;32;20115;-69
2022/03/22 05:13:41;;;;;;;19.27;9.80;;;;;;;-1.73;59.38;102432.06;4413462;32;20101;-68
2022/03/22 05:16:09;;;;;;;21.17;10.35;;;;;;;-1.55;58.65;102424.72;4432299;32;20148;-69
2022/03/22 05:18:36;;;;;;;26.58;10.48;;;;;;;-1.53;59.06;102419.63;4433420;32;20116;-68
2022/03/22 05:21:04;;;;;;;28.05;11.43;;;;;;;-1.48;59.19;102423.44;4430852;32;20170;-69
2022/03/22 05:23:35;;;;;;;21.75;9.90;;;;;;;-1.35;58.23;102432.94;4431375;32;20090;-69
2022/03/22 05:26:04;;;;;;;37.75;11.02;;;;;;;-1.26;57.52;102431.00;4431078;32;20147;-69
2022/03/22 05:28:32;;;;;;;31.08;11.70;;;;;;;-1.17;57.88;102429.03;4439301;32;20093;-68
2022/03/22 05:31:00;;;;;;;32.70;12.27;;;;;;;-1.08;58.18;102434.84;4439102;32;20160;-69
2022/03/22 05:33:27;;;;;;;27.77;12.32;;;;;;;-0.89;57.25;102431.78;4439203;32;20093;-69
2022/03/22 05:35:54;;;;;;;25.37;10.88;;;;;;;-0.72;56.35;102430.34;4440014;32;20127;-69
2022/03/22 05:38:26;;;;;;;24.85;10.65;;;;;;;-0.65;56.65;102427.34;4439868;32;20164;-69
2022/03/22 05:40:54;;;;;;;28.70;11.55;;;;;;;-0.62;57.85;102432.75;4440146;32;20374;-69
2022/03/22 05:43:22;;;;;;;28.75;11.18;;;;;;;-0.56;57.36;102432.25;4439969;32;20085;-69
2022/03/22 05:45:49;;;;;;;24.77;11.55;;;;;;;-0.41;56.21;102434.94;4439777;32;20113;-69
2022/03/22 05:48:18;;;;;;;28.90;11.85;;;;;;;-0.28;54.59;102432.38;4439597;32;20160;-68
2022/03/22 05:50:46;;;;;;;46.25;14.13;;;;;;;-0.06;56.67;102432.06;4435187;32;20093;-68
2022/03/22 05:53:14;;;;;;;36.13;14.60;;;;;;;0.15;57.70;102437.72;4437711;32;20109;-68
2022/03/22 05:55:41;;;;;;;31.10;14.18;;;;;;;0.24;58.30;102431.38;4437893;32;20113;-68
2022/03/22 05:58:09;;;;;;;39.40;15.60;;;;;;;0.37;57.06;102435.66;4424891;32;20167;-69
2022/03/22 06:00:36;;;;;;;39.00;14.27;;;;;;;0.53;56.46;102436.59;4423326;32;20502;-69
2022/03/22 06:03:04;;;;;;;33.05;13.45;;;;;;;0.74;55.22;102443.09;4423464;32;20193;-69
2022/03/22 06:05:31;;;;;;;55.53;14.48;;;;;;;0.95;54.12;102440.91;4423442;32;20173;-69
2022/03/22 06:07:59;;;;;;;45.40;14.35;;;;;;;1.12;55.91;102448.00;4421997;32;20480;-69
2022/03/22 06:10:28;;;;;;;44.55;17.58;;;;;;;1.33;55.32;102448.38;4432666;32;20127;-69
2022/03/22 06:12:57;;;;;;;38.22;16.08;;;;;;;1.46;56.54;102450.00;4436513;32;20174;-68
2022/03/22 06:15:32;;;;;;;55.08;17.35;;;;;;;1.66;55.64;102456.31;4435948;32;20128;-69
2022/03/22 06:18:11;;;;;;;34.13;15.88;;;;;;;1.86;53.30;102450.56;4437829;32;20150;-69
2022/03/22 06:20:43;;;;;;;47.28;17.35;;;;;;;2.13;50.82;102447.72;4424323;32;20135;-69
2022/03/22 06:23:13;;;;;;;45.90;17.73;;;;;;;2.33;51.72;102444.53;4439081;32;20625;-69
2022/03/22 06:25:41;;;;;;;50.22;18.55;;;;;;;2.55;50.92;102443.97;4439400;32;20110;-69
2022/03/22 06:28:09;;;;;;;44.17;20.12;;;;;;;2.77;52.20;102452.94;4439291;32;20099;-69
2022/03/22 06:30:37;;;;;;;63.47;22.73;;;;;;;2.99;50.96;102458.44;4438321;32;20113;-69
2022/03/22 06:33:17;;;;;;;60.40;23.25;;;;;;;3.17;50.65;102461.09;4438357;32;20121;-69
2022/03/22 06:35:46;;;;;;;58.38;22.45;;;;;;;3.35;50.42;102454.22;4438784;32;20089;-69
2022/03/22 06:38:14;;;;;;;54.17;22.10;;;;;;;3.51;50.81;102449.78;4438590;32;20085;-70
2022/03/22 06:40:41;;;;;;;67.10;24.90;;;;;;;3.68;49.75;102458.47;4438895;32;20112;-70
2022/03/22 06:43:12;;;;;;;54.47;23.75;;;;;;;3.91;49.66;102457.84;4437839;32;20116;-70
2022/03/22 06:45:39;;;;;;;73.18;25.55;;;;;;;4.11;49.08;102457.94;4424064;32;20641;-69
2022/03/22 06:48:08;;;;;;;63.63;28.95;;;;;;;4.30;48.65;102457.97;4438508;32;20093;-70
2022/03/22 06:50:37;;;;;;;62.88;29.52;;;;;;;4.48;49.08;102455.31;4438297;32;20119;-69
2022/03/22 06:53:06;;;;;;;91.07;32.72;;;;;;;4.61;47.78;102462.88;4438363;32;20484;-70
2022/03/22 06:55:34;;;;;;;65.00;29.77;;;;;;;4.73;48.16;102460.81;4438259;32;20453;-68
2022/03/22 06:58:02;;;;;;;66.70;28.95;;;;;;;4.86;47.40;102456.16;4438381;32;20085;-69
2022/03/22 07:00:31;;;;;;;74.85;27.45;;;;;;;5.02;47.62;102462.12;4438257;32;20441;-70
2022/03/22 07:03:03;;;;;;;59.92;25.15;;;;;;;5.18;46.42;102461.06;4438170;32;20093;-70
2022/03/22 07:05:31;;;;;;;59.10;23.87;;;;;;;5.37;45.78;102457.56;4438415;32;20477;-69
2022/03/22 07:07:59;;;;;;;64.30;23.05;;;;;;;5.55;44.97;102464.34;4438250;32;20499;-71
2022/03/22 07:10:26;;;;;;;70.35;22.80;;;;;;;5.73;44.06;102467.75;4438120;32;20088;-71
2022/03/22 07:12:56;;;;;;;56.90;22.58;;;;;;;5.89;43.21;102457.06;4438236;32;20793;-71
2022/03/22 07:15:29;;;;;;;43.85;20.48;;;;;;;6.12;41.68;102452.81;4438206;32;20258;-71
2022/03/22 07:18:00;;;;;;;59.55;19.95;;;;;;;6.33;40.02;102452.75;4438069;32;20081;-71
2022/03/22 07:20:28;;;;;;;45.78;21.58;;;;;;;6.59;39.48;102453.72;4438352;32;20157;-70
2022/03/22 07:22:59;;;;;;;55.85;20.05;;;;;;;6.82;39.02;102458.91;4424024;32;20180;-70
2022/03/22 07:25:27;;;;;;;43.38;18.27;;;;;;;7.05;38.63;102454.53;4437904;32;20363;-70
2022/03/22 07:27:57;;;;;;;47.42;20.98;;;;;;;7.20;37.71;102455.06;4438150;32;20547;-70
2022/03/22 07:30:25;;;;;;;40.53;19.15;;;;;;;7.34;37.69;102453.81;4437948;32;20160;-71
2022/03/22 07:32:52;;;;;;;38.88;16.98;;;;;;;7.60;37.14;102457.34;4437892;32;20090;-71
2022/03/22 07:35:19;;;;;;;35.25;14.98;;;;;;;7.80;36.85;102451.84;4438200;32;20173;-71
2022/03/22 07:37:48;;;;;;;28.12;14.85;;;;;;;8.05;36.58;102453.50;4437769;32;20097;-72
2022/03/22 07:40:18;;;;;;;38.63;16.23;;;;;;;8.23;36.02;102456.72;4437993;32;20150;-71
2022/03/22 07:42:48;;;;;;;36.55;15.38;;;;;;;8.50;35.17;102455.81;4438111;32;20117;-70
2022/03/22 07:45:19;;;;;;;31.83;14.65;;;;;;;8.75;34.42;102449.53;4437843;32;20621;-70
2022/03/22 07:47:47;;;;;;;32.08;14.73;;;;;;;8.99;33.79;102451.97;4423498;32;20111;-72
2022/03/22 07:53:06;;;;;;;34.90;13.73;;;;;;;9.78;31.82;102454.03;4437587;32;20177;-70
2022/03/22 07:55:37;;;;;;;27.87;13.27;;;;;;;9.93;31.06;102456.16;4438907;32;20093;-70
2022/03/22 07:58:05;;;;;;;28.20;12.77;;;;;;;10.19;30.64;102458.50;4426045;32;20176;-71
2022/03/22 08:00:38;;;;;;;30.95;13.55;;;;;;;10.34;29.73;102460.63;4424712;32;20156;-71
2022/03/22 08:03:26;;;;;;;32.72;13.50;;;;;;;10.60;29.54;102455.91;4424661;32;20082;-72
2022/03/22 08:05:54;;;;;;;27.95;12.75;;;;;;;10.89;31.12;102461.81;4424425;32;20102;-72
2022/03/22 08:08:26;;;;;;;24.45;13.02;;;;;;;11.40;29.10;102468.94;4424632;32;20086;-71
2022/03/22 08:11:00;;;;;;;30.35;13.85;;;;;;;11.58;27.89;102461.34;4424533;32;20097;-72
2022/03/22 08:13:29;;;;;;;34.03;12.60;;;;;;;11.57;27.40;102456.03;4425060;32;20185;-73
2022/03/22 08:15:56;;;;;;;28.75;12.15;;;;;;;11.73;31.38;102460.69;4424917;32;20106;-71
2022/03/22 08:18:23;;;;;;;21.70;11.80;;;;;;;12.05;30.37;102450.69;4425236;32;20504;-72
2022/03/22 08:20:51;;;;;;;31.98;13.50;;;;;;;12.29;26.61;102450.16;4425037;32;20113;-71
2022/03/22 08:23:18;;;;;;;24.63;13.62;;;;;;;12.48;27.61;102450.41;4429356;32;20139;-72
2022/03/22 08:25:50;;;;;;;23.42;13.65;;;;;;;12.62;27.30;102443.56;4440154;32;20113;-72
2022/03/22 08:28:18;;;;;;;25.25;13.73;;;;;;;12.80;26.58;102446.41;4440357;32;20119;-71
2022/03/22 08:30:46;;;;;;;24.60;13.62;;;;;;;12.79;26.10;102446.38;4440158;32;20161;-71
2022/03/22 08:33:14;;;;;;;25.02;12.10;;;;;;;13.12;26.94;102451.19;4440264;32;20120;-70
2022/03/22 08:35:46;;;;;;;28.00;13.73;;;;;;;13.20;25.89;102446.84;4440293;32;20125;-71
2022/03/22 08:38:15;;;;;;;23.67;13.82;;;;;;;13.24;26.80;102443.37;4440248;32;20093;-71
2022/03/22 08:40:42;;;;;;;29.83;13.48;;;;;;;13.30;29.10;102443.47;4440289;32;20470;-72
2022/03/22 08:43:10;;;;;;;22.58;13.20;;;;;;;13.26;25.57;102441.66;4439915;32;20171;-71
2022/03/22 08:45:38;;;;;;;24.75;13.50;;;;;;;13.36;26.49;102447.94;4440186;32;20129;-71
2022/03/22 08:48:10;;;;;;;27.55;13.40;;;;;;;13.56;28.29;102438.38;4440145;32;20089;-72
2022/03/22 08:50:49;;;;;;;26.33;14.02;;;;;;;13.73;26.22;102432.34;4440082;32;20093;-72
2022/03/22 08:53:19;;;;;;;24.58;12.80;;;;;;;13.71;24.80;102427.06;4440319;32;20154;-71
2022/03/22 08:55:52;;;;;;;22.90;12.98;;;;;;;14.08;26.35;102428.19;4440371;32;20246;-72
2022/03/22 08:58:20;;;;;;;23.70;13.00;;;;;;;14.18;26.68;102423.84;4424535;32;20093;-71
2022/03/22 09:00:48;;;;;;;32.35;13.05;;;;;;;14.32;25.63;102421.25;4424244;32;20114;-72
2022/03/22 09:03:18;;;;;;;28.33;13.20;;;;;;;14.35;26.06;102411.56;4424215;32;20766;-70
2022/03/22 09:08:31;;;;;;;29.85;12.95;;;;;;;14.42;24.31;102416.91;4432896;32;20413;-71
2022/03/22 09:10:59;;;;;;;25.55;13.90;;;;;;;14.50;23.87;102418.72;4439802;32;20526;-72
2022/03/22 09:13:29;;;;;;;27.80;11.85;;;;;;;14.56;22.82;102415.22;4427891;32;20097;-71
2022/03/22 09:15:56;;;;;;;23.12;13.20;;;;;;;14.80;31.18;102420.59;4424739;32;20575;-72
2022/03/22 09:18:25;;;;;;;26.02;12.57;;;;;;;15.06;24.56;102410.06;4436421;32;20097;-72
2022/03/22 09:20:53;;;;;;;28.15;12.93;;;;;;;15.30;25.44;102411.88;4439929;32;20096;-72
2022/03/22 09:23:21;;;;;;;21.87;13.35;;;;;;;15.29;23.72;102406.53;4435100;32;20418;-72
2022/03/22 09:25:49;;;;;;;24.35;12.82;;;;;;;15.42;23.66;102403.00;4423725;32;20101;-72
2022/03/22 09:28:16;;;;;;;24.87;12.93;;;;;;;15.36;22.92;102404.78;4423667;32;20654;-72
2022/03/22 09:30:49;;;;;;;26.60;13.68;;;;;;;15.41;23.86;102401.25;4423694;32;20154;-72
2022/03/22 09:33:17;;;;;;;25.70;12.50;;;;;;;15.70;23.33;102389.75;4433345;32;20128;-71
2022/03/22 09:35:45;;;;;;;30.65;12.52;;;;;;;15.87;21.80;102393.28;4424439;32;20184;-71
2022/03/22 09:38:16;;;;;;;23.73;13.10;;;;;;;16.08;22.24;102387.03;4424593;32;20126;-71
2022/03/22 09:40:43;;;;;;;26.87;12.75;;;;;;;15.95;21.84;102386.16;4424296;32;20154;-71
2022/03/22 09:43:11;;;;;;;19.60;12.15;;;;;;;16.21;23.30;102388.75;4429990;32;20097;-72
2022/03/22 09:45:42;;;;;;;25.50;12.63;;;;;;;16.51;21.51;102396.63;4424360;32;20163;-71
2022/03/22 09:48:16;;;;;;;25.15;11.35;;;;;;;16.65;21.58;102392.13;4429967;32;20987;-71
2022/03/22 09:53:29;;;;;;;20.35;10.38;;;;;;;16.99;20.50;102386.63;4433175;32;20101;-71
2022/03/22 09:55:57;;;;;;;21.40;9.25;;;;;;;17.06;21.94;102386.56;4434558;32;20109;-70
2022/03/22 09:58:24;;;;;;;17.55;9.85;;;;;;;17.15;21.68;102383.84;4429682;32;20085;-71
2022/03/22 10:00:51;;;;;;;28.10;10.52;;;;;;;17.11;20.99;102384.78;4431716;32;20131;-69
2022/03/22 10:03:20;;;;;;;25.05;11.75;;;;;;;17.29;20.15;102386.41;4430246;32;20149;-69
2022/03/22 10:06:01;;;;;;;21.48;12.23;;;;;;;17.49;20.06;102370.28;4424272;32;20150;-70
2022/03/22 10:08:29;;;;;;;24.23;11.85;;;;;;;17.66;19.63;102367.44;4434043;32;20104;-70
2022/03/22 10:10:58;;;;;;;20.65;11.70;;;;;;;17.79;19.71;102366.44;4438918;32;20453;-71
2022/03/22 10:13:25;;;;;;;21.17;11.57;;;;;;;17.86;20.36;102364.59;4434658;32;20786;-71
2022/03/22 10:16:01;;;;;;;28.67;12.40;;;;;;;18.09;19.75;102362.59;4426640;32;20093;-71
2022/03/22 10:18:31;;;;;;;24.98;12.20;;;;;;;18.11;19.84;102354.53;4428447;32;20115;-70
2022/03/22 10:21:01;;;;;;;24.77;12.70;;;;;;;18.15;18.46;102356.28;4436959;32;20553;-70
2022/03/22 10:23:31;;;;;;;20.05;11.18;;;;;;;18.04;18.52;102355.53;4432025;32;20159;-70
2022/03/22 10:26:06;;;;;;;21.73;11.43;;;;;;;18.21;18.79;102355.31;4438544;32;20113;-70
2022/03/22 10:28:35;;;;;;;22.98;11.73;;;;;;;18.16;19.96;102344.69;4420878;32;20077;-70
2022/03/22 10:31:03;;;;;;;20.70;11.55;;;;;;;18.72;22.55;102352.91;4428913;32;20441;-70
2022/03/22 10:33:30;;;;;;;21.27;11.45;;;;;;;18.89;18.79;102347.31;4429269;32;20157;-72
2022/03/22 10:35:57;;;;;;;27.15;11.95;;;;;;;18.99;17.86;102343.59;4438874;32;20189;-70
2022/03/22 10:38:24;;;;;;;20.70;11.63;;;;;;;19.10;18.87;102349.66;4427955;32;20706;-70
2022/03/22 10:40:52;;;;;;;21.05;11.18;;;;;;;19.30;17.06;102342.19;4434992;32;20388;-72
2022/03/22 10:43:23;;;;;;;24.27;11.85;;;;;;;19.26;18.10;102331.59;4439284;32;20121;-70
2022/03/22 10:46:01;;;;;;;21.15;11.73;;;;;;;19.08;17.18;102330.97;4433100;32;20132;-71
2022/03/22 10:48:38;;;;;;;19.62;11.73;;;;;;;19.31;17.70;102335.94;4435508;32;20122;-71
2022/03/22 10:51:06;;;;;;;27.27;11.77;;;;;;;19.45;16.80;102319.66;4435793;32;20154;-72
2022/03/22 10:53:34;;;;;;;28.02;10.75;;;;;;;18.99;17.01;102319.53;4437731;32;20176;-72
2022/03/22 10:56:03;;;;;;;29.33;10.73;;;;;;;19.52;17.59;102321.28;4435420;32;20105;-71
2022/03/22 10:58:31;;;;;;;27.35;10.52;;;;;;;19.82;16.50;102316.31;4423655;32;20194;-71
2022/03/22 11:01:03;;;;;;;19.58;10.68;;;;;;;19.61;16.78;102316.69;4409824;32;20423;-71
2022/03/22 11:03:32;;;;;;;19.65;10.38;;;;;;;19.56;16.21;102306.94;4434559;32;20101;-71
2022/03/22 11:06:03;;;;;;;23.27;10.40;;;;;;;20.35;16.05;102303.59;4439143;32;20164;-72
2022/03/22 11:08:31;;;;;;;18.62;10.25;;;;;;;21.24;15.46;102305.09;4439010;32;20115;-72
2022/03/22 11:10:58;;;;;;;13.85;9.38;;;;;;;22.28;14.88;102292.41;4427708;32;20506;-74
2022/03/22 11:13:26;;;;;;;16.45;9.75;;;;;;;23.00;14.83;102287.44;4425543;32;20093;-73
2022/03/22 11:15:55;;;;;;;14.60;10.07;;;;;;;23.60;13.45;102289.81;4439336;32;20779;-73
2022/03/22 11:18:30;;;;;;;20.50;10.27;;;;;;;23.38;13.28;102287.00;4439251;32;20085;-72
2022/03/22 11:21:00;;;;;;;16.08;8.60;;;;;;;24.67;13.58;102282.19;4438569;32;20089;-72
2022/03/22 11:23:29;;;;;;;20.58;9.45;;;;;;;25.87;12.16;102279.75;4438746;32;20098;-72
2022/03/22 11:26:16;;;;;;;17.52;9.48;;;;;;;25.77;13.01;102278.38;4429569;32;20106;-72
2022/03/22 11:28:45;;;;;;;18.83;9.23;;;;;;;26.38;11.30;102273.69;4423485;32;20082;-73
2022/03/22 11:31:21;;;;;;;19.87;8.05;;;;;;;26.32;12.72;102262.31;4423564;32;20074;-73
2022/03/22 11:36:43;;;;;;;11.85;8.02;;;;;;;27.56;13.42;102264.16;4423774;32;20093;-72
2022/03/22 11:39:19;;;;;;;11.95;8.00;;;;;;;27.77;10.89;102262.16;4438115;32;20104;-71
2022/03/22 11:44:36;;;;;;;11.45;7.65;;;;;;;27.85;10.14;102257.22;4430152;32;20176;-73
2022/03/22 11:47:20;;;;;;;15.57;7.78;;;;;;;28.65;11.10;102247.28;4429629;32;20154;-74
2022/03/22 11:49:51;;;;;;;51.15;8.82;;;;;;;29.26;10.38;102246.38;4435520;32;20113;-71
2022/03/22 11:52:35;;;;;;;11.65;8.32;;;;;;;28.64;9.98;102240.13;4438180;32;20111;-71
2022/03/22 11:55:07;;;;;;;10.73;8.38;;;;;;;28.64;9.66;102232.84;4433284;32;20097;-72
2022/03/22 11:57:44;;;;;;;12.25;8.48;;;;;;;28.67;10.33;102226.37;4434123;32;20178;-72
2022/03/22 12:00:14;;;;;;;12.45;8.15;;;;;;;28.09;10.16;102233.28;4420981;32;20090;-72